sensor_id;sensor_type;location;lat;lon;timestamp;P1;durP1;ratioP1;P2;durP2;ratioP2
25365;SDS011;13315;48.274;-1.900;2024-02-21T00:02:24;6.15;;;5.85;;
25365;SDS011;13315;48.274;-1.900;2024-02-21T00:04:50;7.63;;;7.22;;
25365;SDS011;13315;48.274;-1.900;2024-02-21T00:07:16;6.85;;;6.55;;
25365;SDS011;13315;48.274;-1.900;2024-02-21T00:09:43;6.50;;;6.20;;
25365;SDS011;13315;48.274;-1.900;2024-02-21T00:12:09;6.25;;;5.95;;
25365;SDS011;13315;48.274;-1.900;2024-02-21T00:14:35;6.20;;;5.90;;
25365;SDS011;13315;48.274;-1.900;2024-02-21T00:17:01;6.30;;;6.00;;
25365;SDS011;13315;48.274;-1.900;2024-02-21T00:19:27;6.82;;;6.53;;
25365;SDS011;13315;48.274;-1.900;2024-02-21T00:21:53;5.95;;;5.65;;
25365;SDS011;13315;48.274;-1.900;2024-02-21T00:24:19;5.68;;;5.20;;
25365;SDS011;13315;48.274;-1.900;2024-02-21T00:26:45;4.28;;;4.07;;
25365;SDS011;13315;48.274;-1.900;2024-02-21T00:29:11;4.70;;;4.28;;
25365;SDS011;13315;48.274;-1.900;2024-02-21T00:31:37;4.40;;;4.20;;
25365;SDS011;13315;48.274;-1.900;2024-02-21T00:34:03;4.78;;;4.50;;
25365;SDS011;13315;48.274;-1.900;2024-02-21T00:36:29;4.40;;;4.20;;
25365;SDS011;13315;48.274;-1.900;2024-02-21T00:38:55;4.80;;;4.50;;
25365;SDS011;13315;48.274;-1.900;2024-02-21T00:41:21;4.47;;;4.28;;
25365;SDS011;13315;48.274;-1.900;2024-02-21T00:43:48;7.60;;;5.32;;
25365;SDS011;13315;48.274;-1.900;2024-02-21T00:46:15;5.20;;;4.80;;
25365;SDS011;13315;48.274;-1.900;2024-02-21T00:48:41;5.05;;;4.03;;
25365;SDS011;13315;48.274;-1.900;2024-02-21T00:51:07;5.20;;;4.90;;
25365;SDS011;13315;48.274;-1.900;2024-02-21T00:53:33;4.70;;;4.50;;
25365;SDS011;13315;48.274;-1.900;2024-02-21T00:56:01;4.80;;;4.45;;
25365;SDS011;13315;48.274;-1.900;2024-02-21T00:58:27;4.28;;;4.07;;
25365;SDS011;13315;48.274;-1.900;2024-02-21T01:00:53;7.63;;;4.82;;
25365;SDS011;13315;48.274;-1.900;2024-02-21T01:03:19;3.97;;;3.78;;
25365;SDS011;13315;48.274;-1.900;2024-02-21T01:05:45;4.15;;;3.95;;
25365;SDS011;13315;48.274;-1.900;2024-02-21T01:08:11;4.10;;;3.88;;
25365;SDS011;13315;48.274;-1.900;2024-02-21T01:10:37;4.45;;;4.25;;
25365;SDS011;13315;48.274;-1.900;2024-02-21T01:13:04;5.50;;;5.20;;
25365;SDS011;13315;48.274;-1.900;2024-02-21T01:15:30;3.95;;;3.75;;
25365;SDS011;13315;48.274;-1.900;2024-02-21T01:17:57;5.35;;;5.05;;
25365;SDS011;13315;48.274;-1.900;2024-02-21T01:20:23;4.97;;;4.68;;
25365;SDS011;13315;48.274;-1.900;2024-02-21T01:22:49;5.05;;;4.75;;
25365;SDS011;13315;48.274;-1.900;2024-02-21T01:25:15;4.50;;;4.30;;
25365;SDS011;13315;48.274;-1.900;2024-02-21T01:27:41;4.60;;;4.40;;
25365;SDS011;13315;48.274;-1.900;2024-02-21T01:30:07;4.65;;;4.45;;
25365;SDS011;13315;48.274;-1.900;2024-02-21T01:32:35;4.63;;;4.43;;
25365;SDS011;13315;48.274;-1.900;2024-02-21T01:35:01;5.15;;;4.95;;
25365;SDS011;13315;48.274;-1.900;2024-02-21T01:37:27;4.82;;;4.63;;
25365;SDS011;13315;48.274;-1.900;2024-02-21T01:39:53;5.20;;;4.90;;
25365;SDS011;13315;48.274;-1.900;2024-02-21T01:42:20;5.22;;;5.03;;
25365;SDS011;13315;48.274;-1.900;2024-02-21T01:44:46;5.15;;;4.95;;
25365;SDS011;13315;48.274;-1.900;2024-02-21T01:47:12;5.07;;;4.88;;
25365;SDS011;13315;48.274;-1.900;2024-02-21T01:49:42;4.25;;;4.05;;
25365;SDS011;13315;48.274;-1.900;2024-02-21T01:52:08;4.35;;;4.15;;
25365;SDS011;13315;48.274;-1.900;2024-02-21T01:57:03;4.30;;;4.10;;
25365;SDS011;13315;48.274;-1.900;2024-02-21T01:59:29;4.10;;;3.80;;
25365;SDS011;13315;48.274;-1.900;2024-02-21T02:01:55;4.85;;;4.60;;
25365;SDS011;13315;48.274;-1.900;2024-02-21T02:04:22;5.35;;;5.15;;
25365;SDS011;13315;48.274;-1.900;2024-02-21T02:06:48;4.90;;;4.70;;
25365;SDS011;13315;48.274;-1.900;2024-02-21T02:09:14;5.22;;;5.03;;
25365;SDS011;13315;48.274;-1.900;2024-02-21T02:11:40;5.35;;;4.97;;
25365;SDS011;13315;48.274;-1.900;2024-02-21T02:14:08;4.95;;;4.70;;
25365;SDS011;13315;48.274;-1.900;2024-02-21T02:16:34;5.65;;;5.45;;
25365;SDS011;13315;48.274;-1.900;2024-02-21T02:19:00;6.10;;;5.80;;
25365;SDS011;13315;48.274;-1.900;2024-02-21T02:21:27;5.25;;;5.05;;
25365;SDS011;13315;48.274;-1.900;2024-02-21T02:23:54;5.35;;;5.15;;
25365;SDS011;13315;48.274;-1.900;2024-02-21T02:26:20;8.70;;;6.13;;
25365;SDS011;13315;48.274;-1.900;2024-02-21T02:28:46;6.22;;;5.93;;
25365;SDS011;13315;48.274;-1.900;2024-02-21T02:31:13;6.50;;;6.20;;
25365;SDS011;13315;48.274;-1.900;2024-02-21T02:33:39;6.03;;;5.72;;
25365;SDS011;13315;48.274;-1.900;2024-02-21T02:36:05;5.53;;;5.25;;
25365;SDS011;13315;48.274;-1.900;2024-02-21T02:38:31;5.50;;;5.30;;
25365;SDS011;13315;48.274;-1.900;2024-02-21T02:40:57;4.80;;;4.50;;
25365;SDS011;13315;48.274;-1.900;2024-02-21T02:43:23;5.18;;;4.97;;
25365;SDS011;13315;48.274;-1.900;2024-02-21T02:45:49;6.32;;;5.95;;
25365;SDS011;13315;48.274;-1.900;2024-02-21T02:48:15;5.28;;;5.07;;
25365;SDS011;13315;48.274;-1.900;2024-02-21T02:50:41;6.43;;;5.93;;
25365;SDS011;13315;48.274;-1.900;2024-02-21T02:53:07;5.25;;;5.05;;
25365;SDS011;13315;48.274;-1.900;2024-02-21T02:55:33;6.32;;;5.93;;
25365;SDS011;13315;48.274;-1.900;2024-02-21T02:58:00;6.20;;;5.90;;
25365;SDS011;13315;48.274;-1.900;2024-02-21T03:00:26;6.80;;;6.40;;
25365;SDS011;13315;48.274;-1.900;2024-02-21T03:02:52;6.20;;;5.90;;
25365;SDS011;13315;48.274;-1.900;2024-02-21T03:05:19;6.40;;;6.10;;
25365;SDS011;13315;48.274;-1.900;2024-02-21T03:07:46;6.95;;;6.55;;
25365;SDS011;13315;48.274;-1.900;2024-02-21T03:10:12;6.70;;;6.40;;
25365;SDS011;13315;48.274;-1.900;2024-02-21T03:12:38;5.60;;;5.40;;
25365;SDS011;13315;48.274;-1.900;2024-02-21T03:15:05;5.28;;;5.07;;
25365;SDS011;13315;48.274;-1.900;2024-02-21T03:17:31;6.47;;;6.18;;
25365;SDS011;13315;48.274;-1.900;2024-02-21T03:19:59;6.40;;;6.10;;
25365;SDS011;13315;48.274;-1.900;2024-02-21T03:22:25;6.82;;;6.53;;
25365;SDS011;13315;48.274;-1.900;2024-02-21T03:24:52;6.07;;;5.78;;
25365;SDS011;13315;48.274;-1.900;2024-02-21T03:27:18;5.53;;;5.32;;
25365;SDS011;13315;48.274;-1.900;2024-02-21T03:29:44;5.28;;;5.07;;
25365;SDS011;13315;48.274;-1.900;2024-02-21T03:32:10;4.55;;;4.35;;
25365;SDS011;13315;48.274;-1.900;2024-02-21T03:34:36;4.68;;;4.47;;
25365;SDS011;13315;48.274;-1.900;2024-02-21T03:37:02;4.97;;;4.78;;
25365;SDS011;13315;48.274;-1.900;2024-02-21T03:39:30;4.72;;;4.53;;
25365;SDS011;13315;48.274;-1.900;2024-02-21T03:41:57;5.20;;;4.95;;
25365;SDS011;13315;48.274;-1.900;2024-02-21T03:44:26;5.78;;;5.38;;
25365;SDS011;13315;48.274;-1.900;2024-02-21T03:46:52;5.90;;;5.60;;
25365;SDS011;13315;48.274;-1.900;2024-02-21T03:49:18;5.40;;;5.20;;
25365;SDS011;13315;48.274;-1.900;2024-02-21T03:51:44;5.45;;;5.25;;
25365;SDS011;13315;48.274;-1.900;2024-02-21T03:54:10;5.50;;;5.30;;
25365;SDS011;13315;48.274;-1.900;2024-02-21T03:56:37;6.60;;;6.20;;
25365;SDS011;13315;48.274;-1.900;2024-02-21T03:59:05;6.50;;;6.20;;
25365;SDS011;13315;48.274;-1.900;2024-02-21T04:01:31;6.03;;;5.75;;
25365;SDS011;13315;48.274;-1.900;2024-02-21T04:03:57;5.95;;;5.65;;
25365;SDS011;13315;48.274;-1.900;2024-02-21T04:06:23;6.13;;;5.82;;
25365;SDS011;13315;48.274;-1.900;2024-02-21T04:08:49;6.40;;;6.10;;
25365;SDS011;13315;48.274;-1.900;2024-02-21T04:11:15;6.30;;;6.00;;
25365;SDS011;13315;48.274;-1.900;2024-02-21T04:13:42;6.18;;;5.88;;
25365;SDS011;13315;48.274;-1.900;2024-02-21T04:16:08;6.32;;;6.03;;
25365;SDS011;13315;48.274;-1.900;2024-02-21T04:18:34;6.57;;;6.28;;
25365;SDS011;13315;48.274;-1.900;2024-02-21T04:21:00;6.70;;;6.40;;
25365;SDS011;13315;48.274;-1.900;2024-02-21T04:23:26;5.97;;;5.57;;
25365;SDS011;13315;48.274;-1.900;2024-02-21T04:25:52;6.38;;;6.07;;
25365;SDS011;13315;48.274;-1.900;2024-02-21T04:28:18;6.20;;;5.80;;
25365;SDS011;13315;48.274;-1.900;2024-02-21T04:30:44;5.38;;;5.07;;
25365;SDS011;13315;48.274;-1.900;2024-02-21T04:33:10;5.38;;;5.18;;
25365;SDS011;13315;48.274;-1.900;2024-02-21T04:35:36;6.85;;;6.35;;
25365;SDS011;13315;48.274;-1.900;2024-02-21T04:38:03;6.40;;;6.10;;
25365;SDS011;13315;48.274;-1.900;2024-02-21T04:40:29;6.90;;;6.60;;
25365;SDS011;13315;48.274;-1.900;2024-02-21T04:42:55;6.00;;;5.70;;
25365;SDS011;13315;48.274;-1.900;2024-02-21T04:45:21;6.68;;;6.38;;
25365;SDS011;13315;48.274;-1.900;2024-02-21T04:47:47;6.88;;;6.40;;
25365;SDS011;13315;48.274;-1.900;2024-02-21T04:50:14;6.38;;;6.07;;
25365;SDS011;13315;48.274;-1.900;2024-02-21T04:52:40;5.80;;;5.50;;
25365;SDS011;13315;48.274;-1.900;2024-02-21T04:55:06;6.10;;;5.80;;
25365;SDS011;13315;48.274;-1.900;2024-02-21T04:57:32;5.55;;;5.25;;
25365;SDS011;13315;48.274;-1.900;2024-02-21T04:59:58;6.38;;;6.07;;
25365;SDS011;13315;48.274;-1.900;2024-02-21T05:02:24;5.57;;;5.38;;
25365;SDS011;13315;48.274;-1.900;2024-02-21T05:04:52;6.57;;;6.28;;
25365;SDS011;13315;48.274;-1.900;2024-02-21T05:07:18;6.50;;;6.20;;
25365;SDS011;13315;48.274;-1.900;2024-02-21T05:09:45;5.80;;;5.47;;
25365;SDS011;13315;48.274;-1.900;2024-02-21T05:12:11;5.63;;;5.35;;
25365;SDS011;13315;48.274;-1.900;2024-02-21T05:14:37;5.30;;;5.10;;
25365;SDS011;13315;48.274;-1.900;2024-02-21T05:17:04;9.40;;;5.28;;
25365;SDS011;13315;48.274;-1.900;2024-02-21T05:19:30;5.97;;;5.68;;
25365;SDS011;13315;48.274;-1.900;2024-02-21T05:21:56;6.07;;;5.68;;
25365;SDS011;13315;48.274;-1.900;2024-02-21T05:24:22;5.70;;;5.40;;
25365;SDS011;13315;48.274;-1.900;2024-02-21T05:26:48;5.60;;;5.40;;
25365;SDS011;13315;48.274;-1.900;2024-02-21T05:29:14;5.90;;;5.50;;
25365;SDS011;13315;48.274;-1.900;2024-02-21T05:34:19;5.97;;;5.68;;
25365;SDS011;13315;48.274;-1.900;2024-02-21T05:36:45;5.50;;;5.30;;
25365;SDS011;13315;48.274;-1.900;2024-02-21T05:39:11;6.35;;;5.97;;
25365;SDS011;13315;48.274;-1.900;2024-02-21T05:41:38;7.60;;;7.20;;
25365;SDS011;13315;48.274;-1.900;2024-02-21T05:44:04;6.13;;;5.82;;
25365;SDS011;13315;48.274;-1.900;2024-02-21T05:46:30;7.00;;;6.45;;
25365;SDS011;13315;48.274;-1.900;2024-02-21T05:48:56;7.43;;;7.03;;
25365;SDS011;13315;48.274;-1.900;2024-02-21T05:51:22;5.97;;;5.68;;
25365;SDS011;13315;48.274;-1.900;2024-02-21T05:53:48;20.00;;;6.50;;
25365;SDS011;13315;48.274;-1.900;2024-02-21T05:56:14;5.80;;;5.50;;
25365;SDS011;13315;48.274;-1.900;2024-02-21T05:58:40;5.70;;;5.50;;
25365;SDS011;13315;48.274;-1.900;2024-02-21T06:01:07;7.00;;;6.60;;
25365;SDS011;13315;48.274;-1.900;2024-02-21T06:03:33;15.48;;;5.60;;
25365;SDS011;13315;48.274;-1.900;2024-02-21T06:05:59;5.63;;;5.35;;
25365;SDS011;13315;48.274;-1.900;2024-02-21T06:08:26;6.95;;;6.40;;
25365;SDS011;13315;48.274;-1.900;2024-02-21T06:10:52;5.30;;;5.10;;
25365;SDS011;13315;48.274;-1.900;2024-02-21T06:13:20;4.82;;;4.63;;
25365;SDS011;13315;48.274;-1.900;2024-02-21T06:15:49;5.88;;;5.57;;
25365;SDS011;13315;48.274;-1.900;2024-02-21T06:18:15;5.65;;;5.35;;
25365;SDS011;13315;48.274;-1.900;2024-02-21T06:20:41;6.10;;;5.80;;
25365;SDS011;13315;48.274;-1.900;2024-02-21T06:23:08;4.90;;;4.70;;
25365;SDS011;13315;48.274;-1.900;2024-02-21T06:25:34;4.97;;;4.78;;
25365;SDS011;13315;48.274;-1.900;2024-02-21T06:28:00;6.50;;;5.88;;
25365;SDS011;13315;48.274;-1.900;2024-02-21T06:30:26;5.00;;;4.80;;
25365;SDS011;13315;48.274;-1.900;2024-02-21T06:32:52;5.63;;;5.43;;
25365;SDS011;13315;48.274;-1.900;2024-02-21T06:35:21;15.05;;;5.60;;
25365;SDS011;13315;48.274;-1.900;2024-02-21T06:37:49;6.55;;;6.13;;
25365;SDS011;13315;48.274;-1.900;2024-02-21T06:40:21;5.60;;;5.30;;
25365;SDS011;13315;48.274;-1.900;2024-02-21T06:42:47;6.50;;;6.10;;
25365;SDS011;13315;48.274;-1.900;2024-02-21T06:45:13;6.45;;;6.15;;
25365;SDS011;13315;48.274;-1.900;2024-02-21T06:47:39;6.00;;;5.70;;
25365;SDS011;13315;48.274;-1.900;2024-02-21T06:50:05;6.63;;;5.85;;
25365;SDS011;13315;48.274;-1.900;2024-02-21T06:52:31;7.50;;;6.90;;
25365;SDS011;13315;48.274;-1.900;2024-02-21T06:54:57;8.13;;;6.95;;
25365;SDS011;13315;48.274;-1.900;2024-02-21T06:57:23;6.07;;;5.78;;
25365;SDS011;13315;48.274;-1.900;2024-02-21T06:59:49;6.80;;;6.50;;
25365;SDS011;13315;48.274;-1.900;2024-02-21T07:02:16;6.03;;;5.72;;
25365;SDS011;13315;48.274;-1.900;2024-02-21T07:04:42;6.53;;;6.22;;
25365;SDS011;13315;48.274;-1.900;2024-02-21T07:07:08;7.13;;;6.43;;
25365;SDS011;13315;48.274;-1.900;2024-02-21T07:09:35;6.45;;;6.15;;
25365;SDS011;13315;48.274;-1.900;2024-02-21T07:12:01;5.40;;;5.20;;
25365;SDS011;13315;48.274;-1.900;2024-02-21T07:14:28;6.78;;;6.45;;
25365;SDS011;13315;48.274;-1.900;2024-02-21T07:16:54;11.82;;;6.53;;
25365;SDS011;13315;48.274;-1.900;2024-02-21T07:19:22;6.10;;;5.60;;
25365;SDS011;13315;48.274;-1.900;2024-02-21T07:21:48;6.57;;;6.28;;
25365;SDS011;13315;48.274;-1.900;2024-02-21T07:24:14;6.07;;;5.78;;
25365;SDS011;13315;48.274;-1.900;2024-02-21T07:26:43;5.78;;;5.40;;
25365;SDS011;13315;48.274;-1.900;2024-02-21T07:29:10;5.72;;;5.40;;
25365;SDS011;13315;48.274;-1.900;2024-02-21T07:31:42;5.88;;;5.50;;
25365;SDS011;13315;48.274;-1.900;2024-02-21T07:34:08;6.32;;;5.10;;
25365;SDS011;13315;48.274;-1.900;2024-02-21T07:36:35;5.90;;;5.60;;
25365;SDS011;13315;48.274;-1.900;2024-02-21T07:39:03;5.40;;;5.20;;
25365;SDS011;13315;48.274;-1.900;2024-02-21T07:41:32;5.43;;;5.00;;
25365;SDS011;13315;48.274;-1.900;2024-02-21T07:43:59;5.30;;;5.00;;
25365;SDS011;13315;48.274;-1.900;2024-02-21T07:46:25;5.00;;;4.80;;
25365;SDS011;13315;48.274;-1.900;2024-02-21T07:48:51;4.63;;;4.43;;
25365;SDS011;13315;48.274;-1.900;2024-02-21T07:51:17;6.00;;;5.70;;
25365;SDS011;13315;48.274;-1.900;2024-02-21T07:53:44;5.25;;;5.03;;
25365;SDS011;13315;48.274;-1.900;2024-02-21T07:56:14;4.63;;;4.43;;
25365;SDS011;13315;48.274;-1.900;2024-02-21T07:58:41;5.40;;;5.00;;
25365;SDS011;13315;48.274;-1.900;2024-02-21T08:01:07;4.97;;;4.78;;
25365;SDS011;13315;48.274;-1.900;2024-02-21T08:03:33;4.60;;;4.40;;
25365;SDS011;13315;48.274;-1.900;2024-02-21T08:06:00;5.30;;;5.00;;
25365;SDS011;13315;48.274;-1.900;2024-02-21T08:08:26;4.95;;;4.75;;
25365;SDS011;13315;48.274;-1.900;2024-02-21T08:10:52;5.20;;;5.00;;
25365;SDS011;13315;48.274;-1.900;2024-02-21T08:13:18;5.50;;;5.22;;
25365;SDS011;13315;48.274;-1.900;2024-02-21T08:15:45;6.40;;;6.07;;
25365;SDS011;13315;48.274;-1.900;2024-02-21T08:18:11;5.05;;;4.85;;
25365;SDS011;13315;48.274;-1.900;2024-02-21T08:20:38;5.95;;;5.55;;
25365;SDS011;13315;48.274;-1.900;2024-02-21T08:23:04;5.38;;;5.10;;
25365;SDS011;13315;48.274;-1.900;2024-02-21T08:25:30;5.22;;;5.03;;
25365;SDS011;13315;48.274;-1.900;2024-02-21T08:27:57;6.05;;;5.65;;
25365;SDS011;13315;48.274;-1.900;2024-02-21T08:30:25;4.95;;;4.75;;
25365;SDS011;13315;48.274;-1.900;2024-02-21T08:32:53;4.65;;;4.45;;
25365;SDS011;13315;48.274;-1.900;2024-02-21T08:35:21;5.35;;;5.05;;
25365;SDS011;13315;48.274;-1.900;2024-02-21T08:37:48;5.45;;;5.03;;
25365;SDS011;13315;48.274;-1.900;2024-02-21T08:40:15;4.72;;;4.43;;
25365;SDS011;13315;48.274;-1.900;2024-02-21T08:42:46;5.90;;;5.20;;
25365;SDS011;13315;48.274;-1.900;2024-02-21T08:45:12;5.22;;;4.93;;
25365;SDS011;13315;48.274;-1.900;2024-02-21T08:47:39;5.10;;;4.85;;
25365;SDS011;13315;48.274;-1.900;2024-02-21T08:50:06;5.28;;;5.07;;
25365;SDS011;13315;48.274;-1.900;2024-02-21T08:52:32;6.25;;;5.85;;
25365;SDS011;13315;48.274;-1.900;2024-02-21T08:54:58;5.60;;;5.30;;
25365;SDS011;13315;48.274;-1.900;2024-02-21T08:57:24;5.95;;;5.65;;
25365;SDS011;13315;48.274;-1.900;2024-02-21T08:59:50;5.95;;;5.65;;
25365;SDS011;13315;48.274;-1.900;2024-02-21T09:02:16;6.28;;;5.97;;
25365;SDS011;13315;48.274;-1.900;2024-02-21T09:04:42;6.03;;;5.72;;
25365;SDS011;13315;48.274;-1.900;2024-02-21T09:07:09;5.10;;;4.82;;
25365;SDS011;13315;48.274;-1.900;2024-02-21T09:09:35;5.43;;;5.20;;
25365;SDS011;13315;48.274;-1.900;2024-02-21T09:12:03;6.23;;;5.93;;
25365;SDS011;13315;48.274;-1.900;2024-02-21T09:14:33;5.93;;;5.55;;
25365;SDS011;13315;48.274;-1.900;2024-02-21T09:17:00;5.82;;;5.53;;
25365;SDS011;13315;48.274;-1.900;2024-02-21T09:19:26;5.35;;;5.15;;
25365;SDS011;13315;48.274;-1.900;2024-02-21T09:21:52;7.75;;;5.75;;
25365;SDS011;13315;48.274;-1.900;2024-02-21T09:24:18;6.60;;;6.00;;
25365;SDS011;13315;48.274;-1.900;2024-02-21T09:26:44;6.15;;;5.65;;
25365;SDS011;13315;48.274;-1.900;2024-02-21T09:29:11;5.80;;;5.50;;
25365;SDS011;13315;48.274;-1.900;2024-02-21T09:31:37;7.85;;;7.20;;
25365;SDS011;13315;48.274;-1.900;2024-02-21T09:34:03;5.97;;;5.68;;
25365;SDS011;13315;48.274;-1.900;2024-02-21T09:36:30;6.70;;;6.20;;
25365;SDS011;13315;48.274;-1.900;2024-02-21T09:38:56;6.88;;;6.50;;
25365;SDS011;13315;48.274;-1.900;2024-02-21T09:41:25;6.93;;;6.63;;
25365;SDS011;13315;48.274;-1.900;2024-02-21T09:43:52;5.65;;;5.45;;
25365;SDS011;13315;48.274;-1.900;2024-02-21T09:46:19;6.53;;;6.22;;
25365;SDS011;13315;48.274;-1.900;2024-02-21T09:51:19;5.35;;;5.15;;
25365;SDS011;13315;48.274;-1.900;2024-02-21T09:53:46;5.90;;;5.60;;
25365;SDS011;13315;48.274;-1.900;2024-02-21T09:56:13;5.90;;;5.60;;
25365;SDS011;13315;48.274;-1.900;2024-02-21T09:58:39;5.70;;;5.40;;
25365;SDS011;13315;48.274;-1.900;2024-02-21T10:01:06;4.90;;;4.70;;
25365;SDS011;13315;48.274;-1.900;2024-02-21T10:03:33;5.70;;;5.43;;
25365;SDS011;13315;48.274;-1.900;2024-02-21T10:05:59;5.40;;;5.10;;
25365;SDS011;13315;48.274;-1.900;2024-02-21T10:08:26;6.00;;;5.60;;
25365;SDS011;13315;48.274;-1.900;2024-02-21T10:10:52;6.10;;;5.78;;
25365;SDS011;13315;48.274;-1.900;2024-02-21T10:15:47;4.97;;;4.72;;
25365;SDS011;13315;48.274;-1.900;2024-02-21T10:18:15;9.52;;;5.70;;
25365;SDS011;13315;48.274;-1.900;2024-02-21T10:20:43;6.75;;;6.22;;
25365;SDS011;13315;48.274;-1.900;2024-02-21T10:23:10;6.00;;;5.70;;
25365;SDS011;13315;48.274;-1.900;2024-02-21T10:25:36;5.65;;;5.35;;
25365;SDS011;13315;48.274;-1.900;2024-02-21T10:28:13;4.32;;;4.13;;
25365;SDS011;13315;48.274;-1.900;2024-02-21T10:30:49;5.50;;;5.20;;
25365;SDS011;13315;48.274;-1.900;2024-02-21T10:33:15;9.88;;;5.53;;
25365;SDS011;13315;48.274;-1.900;2024-02-21T10:35:41;5.72;;;5.40;;
25365;SDS011;13315;48.274;-1.900;2024-02-21T10:38:07;5.25;;;4.95;;
25365;SDS011;13315;48.274;-1.900;2024-02-21T10:40:33;6.15;;;5.75;;
25365;SDS011;13315;48.274;-1.900;2024-02-21T10:43:00;5.30;;;5.10;;
25365;SDS011;13315;48.274;-1.900;2024-02-21T10:45:35;10.57;;;6.40;;
25365;SDS011;13315;48.274;-1.900;2024-02-21T10:48:11;7.40;;;6.95;;
25365;SDS011;13315;48.274;-1.900;2024-02-21T10:53:17;6.20;;;5.90;;
25365;SDS011;13315;48.274;-1.900;2024-02-21T10:55:51;6.70;;;6.40;;
25365;SDS011;13315;48.274;-1.900;2024-02-21T10:58:22;10.98;;;10.38;;
25365;SDS011;13315;48.274;-1.900;2024-02-21T11:00:50;11.05;;;10.45;;
25365;SDS011;13315;48.274;-1.900;2024-02-21T11:03:17;12.50;;;11.90;;
25365;SDS011;13315;48.274;-1.900;2024-02-21T11:05:43;14.15;;;13.45;;
25365;SDS011;13315;48.274;-1.900;2024-02-21T11:08:10;19.92;;;18.50;;
25365;SDS011;13315;48.274;-1.900;2024-02-21T11:10:36;20.48;;;19.33;;
25365;SDS011;13315;48.274;-1.900;2024-02-21T11:13:06;17.40;;;15.90;;
25365;SDS011;13315;48.274;-1.900;2024-02-21T11:15:33;19.60;;;18.60;;
25365;SDS011;13315;48.274;-1.900;2024-02-21T11:17:59;16.35;;;15.25;;
25365;SDS011;13315;48.274;-1.900;2024-02-21T11:20:32;16.80;;;15.90;;
25365;SDS011;13315;48.274;-1.900;2024-02-21T11:22:59;18.23;;;17.23;;
25365;SDS011;13315;48.274;-1.900;2024-02-21T11:25:26;21.48;;;20.38;;
25365;SDS011;13315;48.274;-1.900;2024-02-21T11:30:27;28.00;;;25.67;;
25365;SDS011;13315;48.274;-1.900;2024-02-21T11:33:07;27.80;;;26.38;;
25365;SDS011;13315;48.274;-1.900;2024-02-21T11:35:34;22.40;;;21.30;;
25365;SDS011;13315;48.274;-1.900;2024-02-21T11:38:10;17.77;;;16.88;;
25365;SDS011;13315;48.274;-1.900;2024-02-21T11:40:39;17.08;;;16.27;;
25365;SDS011;13315;48.274;-1.900;2024-02-21T11:43:06;17.15;;;16.25;;
25365;SDS011;13315;48.274;-1.900;2024-02-21T11:45:32;17.90;;;17.00;;
25365;SDS011;13315;48.274;-1.900;2024-02-21T11:47:59;19.63;;;18.42;;
25365;SDS011;13315;48.274;-1.900;2024-02-21T11:50:28;16.05;;;14.50;;
25365;SDS011;13315;48.274;-1.900;2024-02-21T11:52:54;15.85;;;15.05;;
25365;SDS011;13315;48.274;-1.900;2024-02-21T11:55:21;16.75;;;15.95;;
25365;SDS011;13315;48.274;-1.900;2024-02-21T11:57:47;15.60;;;14.80;;
25365;SDS011;13315;48.274;-1.900;2024-02-21T12:00:17;18.67;;;17.77;;
25365;SDS011;13315;48.274;-1.900;2024-02-21T12:02:45;15.65;;;14.85;;
25365;SDS011;13315;48.274;-1.900;2024-02-21T12:05:11;15.75;;;14.95;;
25365;SDS011;13315;48.274;-1.900;2024-02-21T12:07:37;13.43;;;12.73;;
25365;SDS011;13315;48.274;-1.900;2024-02-21T12:10:14;12.20;;;11.60;;
25365;SDS011;13315;48.274;-1.900;2024-02-21T12:12:40;15.50;;;14.20;;
25365;SDS011;13315;48.274;-1.900;2024-02-21T12:15:07;15.20;;;14.25;;
25365;SDS011;13315;48.274;-1.900;2024-02-21T12:17:33;12.07;;;11.30;;
25365;SDS011;13315;48.274;-1.900;2024-02-21T12:20:00;10.05;;;9.55;;
25365;SDS011;13315;48.274;-1.900;2024-02-21T12:22:26;13.98;;;13.07;;
25365;SDS011;13315;48.274;-1.900;2024-02-21T12:24:53;13.15;;;12.45;;
25365;SDS011;13315;48.274;-1.900;2024-02-21T12:27:19;17.90;;;16.80;;
25365;SDS011;13315;48.274;-1.900;2024-02-21T12:29:47;12.63;;;11.63;;
25365;SDS011;13315;48.274;-1.900;2024-02-21T12:32:13;13.90;;;13.15;;
25365;SDS011;13315;48.274;-1.900;2024-02-21T12:34:39;10.60;;;10.10;;
25365;SDS011;13315;48.274;-1.900;2024-02-21T12:37:05;9.10;;;8.70;;
25365;SDS011;13315;48.274;-1.900;2024-02-21T12:39:32;13.20;;;12.50;;
25365;SDS011;13315;48.274;-1.900;2024-02-21T12:41:58;9.32;;;8.82;;
25365;SDS011;13315;48.274;-1.900;2024-02-21T12:44:24;8.45;;;8.05;;
25365;SDS011;13315;48.274;-1.900;2024-02-21T12:46:50;7.72;;;7.35;;
25365;SDS011;13315;48.274;-1.900;2024-02-21T12:49:19;8.48;;;7.97;;
25365;SDS011;13315;48.274;-1.900;2024-02-21T12:51:45;11.27;;;10.77;;
25365;SDS011;13315;48.274;-1.900;2024-02-21T12:54:15;10.50;;;9.93;;
25365;SDS011;13315;48.274;-1.900;2024-02-21T12:56:41;10.52;;;9.93;;
25365;SDS011;13315;48.274;-1.900;2024-02-21T12:59:07;8.35;;;7.85;;
25365;SDS011;13315;48.274;-1.900;2024-02-21T13:01:37;7.35;;;6.90;;
25365;SDS011;13315;48.274;-1.900;2024-02-21T13:04:03;7.88;;;7.47;;
25365;SDS011;13315;48.274;-1.900;2024-02-21T13:06:29;8.43;;;8.02;;
25365;SDS011;13315;48.274;-1.900;2024-02-21T13:08:55;9.02;;;8.63;;
25365;SDS011;13315;48.274;-1.900;2024-02-21T13:11:21;9.75;;;9.25;;
25365;SDS011;13315;48.274;-1.900;2024-02-21T13:13:47;11.35;;;8.65;;
25365;SDS011;13315;48.274;-1.900;2024-02-21T13:16:13;7.55;;;7.13;;
25365;SDS011;13315;48.274;-1.900;2024-02-21T13:18:39;8.23;;;7.78;;
25365;SDS011;13315;48.274;-1.900;2024-02-21T13:21:07;6.85;;;6.55;;
25365;SDS011;13315;48.274;-1.900;2024-02-21T13:23:34;12.38;;;7.78;;
25365;SDS011;13315;48.274;-1.900;2024-02-21T13:26:00;6.53;;;6.22;;
25365;SDS011;13315;48.274;-1.900;2024-02-21T13:28:26;7.38;;;6.97;;
25365;SDS011;13315;48.274;-1.900;2024-02-21T13:30:52;5.57;;;5.28;;
25365;SDS011;13315;48.274;-1.900;2024-02-21T13:33:18;6.05;;;5.75;;
25365;SDS011;13315;48.274;-1.900;2024-02-21T13:35:45;6.07;;;5.78;;
25365;SDS011;13315;48.274;-1.900;2024-02-21T13:38:11;5.70;;;5.40;;
25365;SDS011;13315;48.274;-1.900;2024-02-21T13:40:37;10.13;;;5.25;;
25365;SDS011;13315;48.274;-1.900;2024-02-21T13:43:03;5.00;;;4.80;;
25365;SDS011;13315;48.274;-1.900;2024-02-21T13:45:29;5.70;;;5.30;;
25365;SDS011;13315;48.274;-1.900;2024-02-21T13:47:56;6.25;;;5.95;;
25365;SDS011;13315;48.274;-1.900;2024-02-21T13:50:23;5.87;;;4.30;;
25365;SDS011;13315;48.274;-1.900;2024-02-21T13:52:51;4.80;;;4.60;;
25365;SDS011;13315;48.274;-1.900;2024-02-21T13:55:17;5.07;;;4.88;;
25365;SDS011;13315;48.274;-1.900;2024-02-21T13:57:45;4.15;;;3.95;;
25365;SDS011;13315;48.274;-1.900;2024-02-21T14:00:11;5.32;;;4.93;;
25365;SDS011;13315;48.274;-1.900;2024-02-21T14:02:37;4.28;;;4.05;;
25365;SDS011;13315;48.274;-1.900;2024-02-21T14:05:04;5.40;;;5.20;;
25365;SDS011;13315;48.274;-1.900;2024-02-21T14:07:31;6.18;;;5.88;;
25365;SDS011;13315;48.274;-1.900;2024-02-21T14:09:58;5.88;;;5.57;;
25365;SDS011;13315;48.274;-1.900;2024-02-21T14:12:24;5.22;;;5.03;;
25365;SDS011;13315;48.274;-1.900;2024-02-21T14:14:50;11.18;;;5.63;;
25365;SDS011;13315;48.274;-1.900;2024-02-21T14:17:17;6.03;;;5.72;;
25365;SDS011;13315;48.274;-1.900;2024-02-21T14:19:43;6.60;;;6.30;;
25365;SDS011;13315;48.274;-1.900;2024-02-21T14:22:09;6.30;;;6.00;;
25365;SDS011;13315;48.274;-1.900;2024-02-21T14:24:36;5.82;;;5.43;;
25365;SDS011;13315;48.274;-1.900;2024-02-21T14:27:03;7.95;;;7.45;;
25365;SDS011;13315;48.274;-1.900;2024-02-21T14:29:29;5.35;;;4.85;;
25365;SDS011;13315;48.274;-1.900;2024-02-21T14:31:55;9.82;;;5.35;;
25365;SDS011;13315;48.274;-1.900;2024-02-21T14:34:21;5.70;;;5.50;;
25365;SDS011;13315;48.274;-1.900;2024-02-21T14:36:47;5.45;;;5.25;;
25365;SDS011;13315;48.274;-1.900;2024-02-21T14:39:13;6.43;;;6.13;;
25365;SDS011;13315;48.274;-1.900;2024-02-21T14:41:39;6.45;;;6.15;;
25365;SDS011;13315;48.274;-1.900;2024-02-21T14:44:05;7.28;;;6.85;;